createdAt,value
2022-09-30T00:01:12.640Z,9.60
2022-09-30T00:03:40.362Z,9.60
2022-09-30T00:06:10.977Z,9.60
2022-09-30T00:08:39.351Z,9.60
2022-09-30T00:11:09.710Z,9.60
2022-09-30T00:13:40.046Z,9.60
2022-09-30T00:16:09.650Z,9.60
2022-09-30T00:18:38.029Z,9.60
2022-09-30T00:21:06.551Z,9.60
2022-09-30T00:23:36.269Z,9.60
2022-09-30T00:26:07.160Z,9.60
2022-09-30T00:28:35.777Z,9.70
2022-09-30T00:31:06.390Z,9.80
2022-09-30T00:33:34.712Z,9.80
2022-09-30T00:36:02.817Z,9.90
2022-09-30T00:38:31.093Z,9.90
2022-09-30T00:41:01.888Z,10.00
2022-09-30T00:43:45.462Z,10.10
2022-09-30T00:46:20.867Z,10.20
2022-09-30T00:48:53.882Z,10.30
2022-09-30T00:51:28.885Z,10.30
2022-09-30T00:53:59.576Z,10.40
2022-09-30T00:56:32.367Z,10.40
2022-09-30T00:59:04.301Z,10.30
2022-09-30T01:01:32.562Z,10.30
2022-09-30T01:04:03.079Z,10.20
2022-09-30T01:06:31.157Z,10.20
2022-09-30T01:08:59.581Z,10.20
2022-09-30T01:11:31.090Z,10.20
2022-09-30T01:14:01.579Z,10.10
2022-09-30T01:16:51.780Z,10.10
2022-09-30T01:19:53.388Z,10.00
2022-09-30T01:22:29.102Z,9.90
2022-09-30T01:25:18.599Z,9.80
2022-09-30T01:28:25.326Z,9.70
2022-09-30T01:31:08.689Z,9.60
2022-09-30T01:33:45.727Z,9.50
2022-09-30T01:36:26.148Z,9.50
2022-09-30T01:39:04.251Z,9.40
2022-09-30T01:41:42.640Z,9.40
2022-09-30T01:44:17.400Z,9.30
2022-09-30T01:46:53.786Z,9.30
2022-09-30T01:49:28.210Z,9.30
2022-09-30T01:52:00.124Z,9.30
2022-09-30T01:54:34.042Z,9.30
2022-09-30T01:57:06.339Z,9.30
2022-09-30T01:59:37.325Z,9.30
2022-09-30T02:02:11.522Z,9.30
2022-09-30T02:04:44.786Z,9.20
2022-09-30T02:07:17.180Z,9.20
2022-09-30T02:09:50.035Z,9.20
2022-09-30T02:12:20.967Z,9.10
2022-09-30T02:20:18.288Z,9.20
2022-09-30T02:22:50.595Z,9.20
2022-09-30T02:25:25.129Z,9.30
2022-09-30T02:27:56.687Z,9.30
2022-09-30T02:30:24.676Z,9.40
2022-09-30T02:32:56.731Z,9.40
2022-09-30T02:35:30.534Z,9.40
2022-09-30T02:38:03.590Z,9.50
2022-09-30T02:40:39.325Z,9.50
2022-09-30T02:43:08.183Z,9.60
2022-09-30T02:45:44.101Z,9.60
2022-09-30T02:48:23.811Z,9.70
2022-09-30T02:50:55.878Z,9.70
2022-09-30T02:53:28.830Z,9.80
2022-09-30T02:56:10.233Z,9.80
2022-09-30T02:58:39.712Z,9.80
2022-09-30T03:01:09.722Z,9.90
2022-09-30T03:03:42.121Z,9.90
2022-09-30T03:06:12.443Z,10.00
2022-09-30T03:08:40.363Z,10.00
2022-09-30T03:11:08.936Z,10.10
2022-09-30T03:14:19.130Z,10.10
2022-09-30T03:17:10.008Z,10.10
2022-09-30T03:19:56.156Z,10.10
2022-09-30T03:22:58.204Z,10.10
2022-09-30T03:25:36.242Z,10.10
2022-09-30T03:28:16.321Z,10.00
2022-09-30T03:30:49.458Z,10.00
2022-09-30T03:33:23.921Z,10.00
2022-09-30T03:36:01.463Z,10.00
2022-09-30T03:38:41.062Z,10.00
2022-09-30T03:41:13.946Z,10.00
2022-09-30T03:43:46.718Z,9.90
2022-09-30T03:46:22.685Z,9.90
2022-09-30T03:48:55.285Z,9.80
2022-09-30T03:51:25.176Z,9.80
2022-09-30T03:53:55.436Z,9.70
2022-09-30T03:56:28.372Z,9.70
2022-09-30T03:58:56.698Z,9.70
2022-09-30T04:01:25.294Z,9.70
2022-09-30T04:03:54.525Z,9.70
2022-09-30T04:06:24.238Z,9.80
2022-09-30T04:08:55.838Z,9.80
2022-09-30T04:11:23.599Z,9.80
2022-09-30T04:13:51.478Z,9.90
2022-09-30T04:16:19.466Z,9.90
2022-09-30T04:18:47.344Z,9.90
2022-09-30T04:21:16.403Z,9.90
2022-09-30T04:23:44.443Z,9.90
2022-09-30T04:26:15.494Z,9.90
2022-09-30T04:28:43.772Z,9.90
2022-09-30T04:31:13.423Z,9.90
2022-09-30T04:33:42.365Z,10.00
2022-09-30T04:36:11.082Z,10.00
2022-09-30T04:38:39.296Z,10.00
2022-09-30T04:41:08.161Z,10.00
2022-09-30T04:43:37.346Z,10.00
2022-09-30T04:46:05.970Z,10.00
2022-09-30T04:48:37.007Z,10.10
2022-09-30T04:51:05.034Z,10.10
2022-09-30T04:53:33.169Z,10.20
2022-09-30T04:56:01.868Z,10.20
2022-09-30T04:58:36.832Z,10.30
2022-09-30T05:01:08.732Z,10.30
2022-09-30T05:03:37.623Z,10.30
2022-09-30T05:06:07.565Z,10.30
2022-09-30T05:08:35.558Z,10.30
2022-09-30T05:11:06.166Z,10.30
2022-09-30T05:13:36.050Z,10.30
2022-09-30T05:16:04.353Z,10.30
2022-09-30T05:18:34.307Z,10.20
2022-09-30T05:21:03.121Z,10.20
2022-09-30T05:23:32.027Z,10.10
2022-09-30T05:26:01.281Z,9.90
2022-09-30T05:28:31.259Z,9.80
2022-09-30T05:31:00.534Z,9.70
2022-09-30T05:33:29.706Z,9.60
2022-09-30T05:36:04.094Z,9.50
2022-09-30T05:38:32.200Z,9.40
2022-09-30T05:41:07.510Z,9.30
2022-09-30T05:43:35.460Z,9.20
2022-09-30T05:46:03.315Z,9.20
2022-09-30T05:48:31.072Z,9.10
2022-09-30T05:51:01.709Z,9.10
2022-09-30T05:53:30.072Z,9.00
2022-09-30T05:55:57.806Z,9.00
2022-09-30T05:58:25.642Z,8.90
2022-09-30T06:00:53.489Z,8.90
2022-09-30T06:03:21.260Z,8.90
2022-09-30T06:05:49.188Z,8.90
2022-09-30T06:08:18.309Z,8.90
2022-09-30T06:10:46.553Z,8.90
2022-09-30T06:13:14.311Z,8.90
2022-09-30T06:15:43.434Z,8.90
2022-09-30T06:18:17.017Z,8.90
2022-09-30T06:20:45.549Z,8.90
2022-09-30T06:23:13.311Z,9.00
2022-09-30T06:25:43.662Z,9.00
2022-09-30T06:28:11.472Z,9.00
2022-09-30T06:30:39.237Z,9.00
2022-09-30T06:33:06.970Z,9.10
2022-09-30T06:35:34.840Z,9.10
2022-09-30T06:38:02.738Z,9.20
2022-09-30T06:40:30.626Z,9.30
2022-09-30T06:43:03.581Z,9.40
2022-09-30T06:45:33.395Z,9.40
2022-09-30T06:48:05.362Z,9.50
2022-09-30T06:50:34.041Z,9.50
2022-09-30T06:53:03.341Z,9.60
2022-09-30T06:55:31.582Z,9.60
2022-09-30T06:58:01.147Z,9.60
2022-09-30T07:00:29.707Z,9.70
2022-09-30T07:02:58.023Z,9.80
2022-09-30T07:05:26.792Z,9.90
2022-09-30T07:07:55.084Z,10.00
2022-09-30T07:10:22.992Z,10.00
2022-09-30T07:12:52.072Z,10.10
2022-09-30T07:15:22.154Z,10.10
2022-09-30T07:17:52.610Z,10.20
2022-09-30T07:20:20.762Z,10.30
2022-09-30T07:22:48.747Z,10.30
2022-09-30T07:25:17.400Z,10.40
2022-09-30T07:27:45.933Z,10.40
2022-09-30T07:30:21.545Z,10.50
2022-09-30T07:32:55.361Z,10.60
2022-09-30T07:35:23.247Z,10.60
2022-09-30T07:37:50.986Z,10.70
2022-09-30T07:40:18.886Z,10.70
2022-09-30T07:42:46.948Z,10.80
2022-09-30T07:45:17.020Z,10.80
2022-09-30T07:47:47.434Z,10.90
2022-09-30T07:50:18.899Z,10.90
2022-09-30T07:52:46.656Z,10.90
2022-09-30T07:55:14.488Z,10.90
2022-09-30T07:57:42.218Z,11.00
2022-09-30T08:00:37.448Z,11.10
2022-09-30T08:02:58.746Z,11.20
2022-09-30T08:05:27.878Z,11.40
2022-09-30T08:07:55.706Z,11.40
2022-09-30T08:10:23.540Z,11.50
2022-09-30T08:12:53.453Z,11.50
2022-09-30T08:15:23.939Z,11.60
2022-09-30T08:17:51.662Z,11.70
2022-09-30T08:20:22.481Z,11.80
2022-09-30T08:22:54.943Z,11.80
2022-09-30T08:25:23.340Z,11.90
2022-09-30T08:27:51.205Z,12.00
2022-09-30T08:30:19.043Z,12.00
2022-09-30T08:32:46.905Z,12.10
2022-09-30T08:35:14.743Z,12.20
2022-09-30T08:37:42.644Z,12.20
2022-09-30T08:40:20.019Z,12.30
2022-09-30T08:43:12.961Z,12.30
2022-09-30T08:45:51.841Z,12.40
2022-09-30T08:48:37.330Z,12.40
2022-09-30T08:51:11.483Z,12.40
2022-09-30T08:53:43.193Z,12.40
2022-09-30T08:56:20.789Z,12.50
2022-09-30T08:58:52.733Z,12.60
2022-09-30T09:01:25.426Z,12.60
2022-09-30T09:03:54.368Z,12.60
2022-09-30T09:06:29.042Z,12.60
2022-09-30T09:09:12.768Z,12.70
2022-09-30T09:12:01.774Z,12.70
2022-09-30T09:14:43.488Z,12.80
2022-09-30T09:17:19.782Z,12.90
2022-09-30T09:19:58.831Z,12.90
2022-09-30T09:22:28.286Z,13.00
2022-09-30T09:24:57.337Z,13.00
2022-09-30T09:30:13.203Z,13.20
2022-09-30T09:32:41.199Z,13.40
2022-09-30T09:35:16.346Z,13.50
2022-09-30T09:38:12.536Z,13.70
2022-09-30T09:40:57.189Z,13.90
2022-09-30T09:43:37.135Z,14.10
2022-09-30T09:46:15.233Z,14.40
2022-09-30T09:48:44.469Z,14.50
2022-09-30T09:51:20.059Z,14.70
2022-09-30T09:53:52.994Z,14.80
2022-09-30T09:56:22.258Z,14.90
2022-09-30T09:59:09.319Z,15.00
2022-09-30T10:01:39.891Z,15.20
2022-09-30T10:04:21.966Z,15.30
2022-09-30T10:06:52.992Z,15.50
2022-09-30T10:09:30.190Z,15.60
2022-09-30T10:12:23.366Z,15.70
2022-09-30T10:14:57.560Z,15.80
2022-09-30T10:17:29.914Z,16.00
2022-09-30T10:20:05.271Z,16.00
2022-09-30T10:22:34.734Z,16.10
2022-09-30T10:25:21.994Z,16.20
2022-09-30T10:27:56.292Z,16.30
2022-09-30T10:30:50.477Z,16.30
2022-09-30T10:33:26.786Z,16.40
2022-09-30T10:35:58.141Z,16.40
2022-09-30T10:38:29.457Z,16.50
2022-09-30T10:40:58.089Z,16.50
2022-09-30T10:43:30.546Z,16.70
2022-09-30T10:46:24.554Z,16.70
2022-09-30T10:48:53.818Z,16.70
2022-09-30T10:51:27.102Z,16.80
2022-09-30T10:53:55.998Z,16.80
2022-09-30T10:56:39.051Z,16.80
2022-09-30T10:59:16.645Z,16.90
2022-09-30T11:01:52.537Z,17.00
2022-09-30T11:04:28.246Z,17.10
2022-09-30T11:07:02.842Z,17.20
2022-09-30T11:09:36.642Z,17.20
2022-09-30T11:12:12.726Z,17.20
2022-09-30T11:14:45.894Z,17.30
2022-09-30T11:17:26.598Z,17.40
2022-09-30T11:20:06.315Z,17.40
2022-09-30T11:22:42.888Z,17.40
2022-09-30T11:25:15.711Z,17.40
2022-09-30T11:28:09.615Z,17.40
2022-09-30T11:30:43.751Z,17.40
2022-09-30T11:33:29.256Z,17.30
2022-09-30T11:36:04.035Z,17.20
2022-09-30T11:38:53.746Z,17.20
2022-09-30T11:41:26.242Z,17.30
2022-09-30T11:44:02.850Z,17.20
2022-09-30T11:46:48.623Z,17.30
2022-09-30T11:49:31.171Z,17.30
2022-09-30T11:52:10.093Z,17.20
2022-09-30T11:54:54.057Z,17.10
2022-09-30T11:57:31.935Z,16.80
2022-09-30T12:00:04.367Z,16.60
2022-09-30T12:02:38.019Z,16.40
2022-09-30T12:05:18.582Z,16.30
2022-09-30T12:07:56.276Z,16.10
2022-09-30T12:10:28.726Z,16.00
2022-09-30T12:13:04.619Z,16.00
2022-09-30T12:15:33.761Z,16.00
2022-09-30T12:18:05.071Z,16.10
2022-09-30T12:20:40.441Z,16.20
2022-09-30T12:23:17.891Z,16.20
2022-09-30T12:25:50.490Z,16.30
2022-09-30T12:28:44.833Z,16.30
2022-09-30T12:31:48.060Z,16.40
2022-09-30T12:34:31.166Z,16.40
2022-09-30T12:37:15.166Z,16.50
2022-09-30T12:40:09.717Z,16.50
2022-09-30T12:43:04.029Z,16.60
2022-09-30T12:45:55.568Z,16.60
2022-09-30T12:48:28.054Z,16.60
2022-09-30T12:50:58.065Z,16.70
2022-09-30T12:53:30.907Z,16.60
2022-09-30T12:56:05.472Z,16.50
2022-09-30T12:58:35.734Z,16.40
2022-09-30T13:01:07.472Z,16.40
2022-09-30T13:03:51.564Z,16.40
2022-09-30T13:06:21.480Z,16.30
2022-09-30T13:09:09.522Z,16.30
2022-09-30T13:11:42.455Z,16.30
2022-09-30T13:14:34.301Z,16.40
2022-09-30T13:17:13.017Z,16.30
2022-09-30T13:19:42.325Z,16.30
2022-09-30T13:22:53.794Z,16.20
2022-09-30T13:25:22.909Z,16.20
2022-09-30T13:27:53.826Z,16.10
2022-09-30T13:30:42.458Z,16.20
2022-09-30T13:33:35.244Z,16.30
2022-09-30T13:36:18.231Z,16.40
2022-09-30T13:38:46.126Z,16.50
2022-09-30T13:41:22.364Z,16.50
2022-09-30T13:44:03.186Z,16.50
2022-09-30T13:46:35.755Z,16.50
2022-09-30T13:49:08.417Z,16.50
2022-09-30T13:51:36.556Z,16.40
2022-09-30T13:54:09.406Z,16.50
2022-09-30T13:56:41.157Z,16.50
2022-09-30T13:59:36.011Z,16.50
2022-09-30T14:02:25.273Z,16.40
2022-09-30T14:05:08.666Z,16.30
2022-09-30T14:07:47.770Z,16.20
2022-09-30T14:10:37.278Z,16.10
2022-09-30T14:13:25.451Z,16.10
2022-09-30T14:16:28.767Z,16.10
2022-09-30T14:19:13.402Z,16.10
2022-09-30T14:21:45.375Z,16.10
2022-09-30T14:24:17.242Z,16.00
2022-09-30T14:26:56.335Z,15.90
2022-09-30T14:29:32.797Z,15.90
2022-09-30T14:32:01.160Z,16.00
2022-09-30T14:34:31.533Z,16.00
2022-09-30T14:36:59.567Z,16.00
2022-09-30T14:39:32.512Z,16.00
2022-09-30T14:42:02.665Z,16.00
2022-09-30T14:44:36.461Z,16.20
2022-09-30T14:47:08.441Z,16.30
2022-09-30T14:49:37.431Z,16.30
2022-09-30T14:52:07.043Z,16.30
2022-09-30T14:54:35.288Z,16.30
2022-09-30T14:57:04.645Z,16.20
2022-09-30T14:59:37.083Z,16.20
2022-09-30T15:02:23.455Z,16.00
2022-09-30T15:04:55.234Z,15.90
2022-09-30T15:07:25.982Z,15.90
2022-09-30T15:09:54.117Z,15.80
2022-09-30T15:12:23.859Z,15.70
2022-09-30T15:14:55.062Z,15.70
2022-09-30T15:17:27.079Z,15.60
2022-09-30T15:19:55.895Z,15.70
2022-09-30T15:22:24.627Z,15.80
2022-09-30T15:24:54.314Z,15.80
2022-09-30T15:27:23.863Z,15.80
2022-09-30T15:30:04.310Z,15.90
2022-09-30T15:32:34.962Z,15.90
2022-09-30T15:35:06.719Z,15.90
2022-09-30T15:37:34.887Z,15.90
2022-09-30T15:40:21.150Z,15.90
2022-09-30T15:43:02.770Z,15.90
2022-09-30T15:45:35.706Z,15.90
2022-09-30T15:48:07.515Z,15.90
2022-09-30T15:50:41.081Z,15.80
2022-09-30T15:53:24.878Z,15.80
2022-09-30T15:55:55.664Z,15.70
2022-09-30T15:58:37.990Z,15.70
2022-09-30T16:01:20.203Z,15.50
2022-09-30T16:03:54.257Z,15.40
2022-09-30T16:06:26.228Z,15.30
2022-09-30T16:09:01.155Z,15.20
2022-09-30T16:11:34.991Z,15.10
2022-09-30T16:14:05.499Z,15.00
2022-09-30T16:16:37.383Z,14.90
2022-09-30T16:19:06.648Z,14.80
2022-09-30T16:21:50.662Z,14.80
2022-09-30T16:24:46.879Z,14.70
2022-09-30T16:27:32.729Z,14.50
2022-09-30T16:30:01.272Z,14.40
2022-09-30T16:32:34.683Z,14.30
2022-09-30T16:35:02.464Z,14.20
2022-09-30T16:37:30.695Z,14.10
2022-09-30T16:40:09.852Z,14.10
2022-09-30T16:42:37.582Z,14.10
2022-09-30T16:45:06.658Z,14.00
2022-09-30T16:47:35.818Z,14.00
2022-09-30T16:50:17.717Z,13.90
2022-09-30T16:52:47.703Z,13.80
2022-09-30T16:57:50.312Z,13.70
2022-09-30T17:00:19.016Z,13.70
2022-09-30T17:02:49.913Z,13.60
2022-09-30T17:05:21.341Z,13.50
2022-09-30T17:07:52.934Z,13.40
2022-09-30T17:10:23.746Z,13.30
2022-09-30T17:12:51.634Z,13.30
2022-09-30T17:15:20.396Z,13.20
2022-09-30T17:17:50.385Z,13.10
2022-09-30T17:20:18.349Z,13.10
2022-09-30T17:22:50.388Z,13.00
2022-09-30T17:25:20.026Z,12.90
2022-09-30T17:27:49.974Z,12.90
2022-09-30T17:30:18.638Z,12.80
2022-09-30T17:32:56.388Z,12.80
2022-09-30T17:35:24.078Z,12.70
2022-09-30T17:37:52.209Z,12.60
2022-09-30T17:40:48.854Z,12.60
2022-09-30T17:43:16.756Z,12.50
2022-09-30T17:45:46.306Z,12.40
2022-09-30T17:48:17.377Z,12.30
2022-09-30T17:50:50.533Z,12.30
2022-09-30T17:53:20.657Z,12.20
2022-09-30T17:55:49.894Z,12.10
2022-09-30T17:58:19.265Z,12.10
2022-09-30T18:00:54.669Z,12.00
2022-09-30T18:03:27.147Z,12.00
2022-09-30T18:05:59.352Z,11.90
2022-09-30T18:08:30.507Z,11.90
2022-09-30T18:10:59.993Z,11.80
2022-09-30T18:13:29.833Z,11.70
2022-09-30T18:16:01.678Z,11.70
2022-09-30T18:18:30.902Z,11.70
2022-09-30T18:20:58.747Z,11.60
2022-09-30T18:23:26.648Z,11.60
2022-09-30T18:25:54.983Z,11.50
2022-09-30T18:28:22.912Z,11.50
2022-09-30T18:30:50.734Z,11.40
2022-09-30T18:33:21.354Z,11.40
2022-09-30T18:35:51.423Z,11.40
2022-09-30T18:38:19.665Z,11.30
2022-09-30T18:40:49.890Z,11.30
2022-09-30T18:43:17.711Z,11.30
2022-09-30T18:45:54.016Z,11.20
2022-09-30T18:48:21.962Z,11.20
2022-09-30T18:50:51.325Z,11.20
2022-09-30T18:53:20.438Z,11.20
2022-09-30T18:55:48.373Z,11.10
2022-09-30T18:58:17.355Z,11.10
2022-09-30T19:00:45.970Z,11.10
2022-09-30T19:03:16.143Z,11.00
2022-09-30T19:05:43.955Z,11.00
2022-09-30T19:08:13.368Z,11.00
2022-09-30T19:10:42.258Z,11.00
2022-09-30T19:13:10.446Z,10.90
2022-09-30T19:15:39.364Z,10.90
2022-09-30T19:18:07.682Z,10.80
2022-09-30T19:20:37.677Z,10.80
2022-09-30T19:23:10.613Z,10.80
2022-09-30T19:25:40.134Z,10.80
2022-09-30T19:28:08.026Z,10.70
2022-09-30T19:30:36.963Z,10.70
2022-09-30T19:33:04.947Z,10.70
2022-09-30T19:35:40.399Z,10.70
2022-09-30T19:38:09.279Z,10.70
2022-09-30T19:40:37.302Z,10.60
2022-09-30T19:43:06.908Z,10.60
2022-09-30T19:45:34.985Z,10.50
2022-09-30T19:48:03.276Z,10.50
2022-09-30T19:50:31.135Z,10.50
2022-09-30T19:52:59.616Z,10.50
2022-09-30T19:55:27.881Z,10.40
2022-09-30T19:57:55.728Z,10.40
2022-09-30T20:00:24.962Z,10.30
2022-09-30T20:02:52.813Z,10.30
2022-09-30T20:05:21.509Z,10.30
2022-09-30T20:07:51.226Z,10.20
2022-09-30T20:10:19.753Z,10.20
2022-09-30T20:12:47.665Z,10.20
2022-09-30T20:15:32.858Z,10.20
2022-09-30T20:18:02.055Z,10.20
2022-09-30T20:20:36.226Z,10.10
2022-09-30T20:23:28.185Z,10.10
2022-09-30T20:25:56.299Z,10.10
2022-09-30T20:28:24.776Z,10.00
2022-09-30T20:30:52.556Z,10.00
2022-09-30T20:33:24.435Z,10.00
2022-09-30T20:35:54.854Z,10.00
2022-09-30T20:38:24.638Z,10.00
2022-09-30T20:40:56.431Z,9.90
2022-09-30T20:43:26.714Z,9.90
2022-09-30T20:45:55.371Z,9.90
2022-09-30T20:48:24.619Z,9.90
2022-09-30T20:50:52.447Z,9.90
2022-09-30T20:53:20.441Z,9.80
2022-09-30T20:55:48.350Z,9.80
2022-09-30T20:58:16.271Z,9.80
2022-09-30T21:00:45.109Z,9.80
2022-09-30T21:03:15.222Z,9.80
2022-09-30T21:05:52.881Z,9.80
2022-09-30T21:08:20.835Z,9.70
2022-09-30T21:10:48.873Z,9.70
2022-09-30T21:13:16.734Z,9.70
2022-09-30T21:15:44.868Z,9.70
2022-09-30T21:18:12.631Z,9.70
2022-09-30T21:20:40.410Z,9.60
2022-09-30T21:23:09.606Z,9.70
2022-09-30T21:25:37.408Z,9.60
2022-09-30T21:28:05.239Z,9.60
2022-09-30T21:30:33.132Z,9.70
2022-09-30T21:33:01.005Z,9.60
2022-09-30T21:35:28.777Z,9.60
2022-09-30T21:37:56.509Z,9.60
2022-09-30T21:40:28.901Z,9.60
2022-09-30T21:42:56.666Z,9.60
2022-09-30T21:45:25.186Z,9.60
2022-09-30T21:48:01.767Z,9.60
2022-09-30T21:50:29.527Z,9.60
2022-09-30T21:52:59.678Z,9.60
2022-09-30T21:55:30.274Z,9.60
2022-09-30T21:57:58.012Z,9.60
2022-09-30T22:00:25.897Z,9.60
2022-09-30T22:02:53.696Z,9.50
2022-09-30T22:05:21.857Z,9.50
2022-09-30T22:07:49.625Z,9.50
2022-09-30T22:10:17.556Z,9.50
2022-09-30T22:12:46.721Z,9.50
2022-09-30T22:15:14.459Z,9.50
2022-09-30T22:17:42.229Z,9.50
2022-09-30T22:20:13.084Z,9.50
2022-09-30T22:22:41.498Z,9.50
2022-09-30T22:25:10.238Z,9.50
2022-09-30T22:27:38.141Z,9.50
2022-09-30T22:30:09.141Z,9.50
2022-09-30T22:32:36.925Z,9.50
2022-09-30T22:35:22.495Z,9.50
2022-09-30T22:38:10.410Z,9.50
2022-09-30T22:40:38.191Z,9.60
2022-09-30T22:43:06.112Z,9.60
2022-09-30T22:45:36.005Z,9.70
2022-09-30T22:48:03.936Z,9.80
2022-09-30T22:50:32.522Z,9.90
2022-09-30T22:53:00.358Z,10.00
2022-09-30T22:55:28.413Z,10.10
2022-09-30T22:57:56.380Z,10.20
2022-09-30T23:00:24.155Z,10.30
2022-09-30T23:02:55.403Z,10.40
2022-09-30T23:05:23.209Z,10.40
2022-09-30T23:07:53.255Z,10.50
2022-09-30T23:10:21.024Z,10.50
2022-09-30T23:12:50.511Z,10.50
2022-09-30T23:15:18.439Z,10.50
2022-09-30T23:17:46.266Z,10.50
2022-09-30T23:20:15.441Z,10.40
2022-09-30T23:22:43.272Z,10.40
2022-09-30T23:25:11.325Z,10.30
2022-09-30T23:27:39.162Z,10.30
2022-09-30T23:30:08.461Z,10.30
2022-09-30T23:32:37.509Z,10.20
2022-09-30T23:35:05.723Z,10.20
2022-09-30T23:37:34.858Z,10.20
2022-09-30T23:40:02.731Z,10.20
2022-09-30T23:42:32.031Z,10.20
2022-09-30T23:44:59.726Z,10.20
2022-09-30T23:47:27.448Z,10.20
2022-09-30T23:49:55.439Z,10.20
2022-09-30T23:52:23.190Z,10.20
2022-09-30T23:54:52.282Z,10.20
2022-09-30T23:57:20.026Z,10.20
2022-09-30T23:59:50.247Z,10.10
